Portada
METAR-TAF:

METAR-TAF

Aeropuertos :

Kunming, China

Aeropuerto Internacional de Kunming-Changshui

latitud: 25-01N, longitud: 102-41E, altitud: 1892 m

Observación

El informe se hizo hace 21 minutos, a las 00:00 UTC
Viento 6 kt del norte
Temperatura 16°C
Humedad 100%
Presión 1022 hPa
Visibilidad: 8000 m
Nubes dispersas a una altura de 2300 ft
Cielo nuboso a una altura de 3600 ft

METAR: ZPPP 260000Z 01003MPS 8000 SCT023 BKN036 16/16 Q1022 NOSIG

Hora: 08:21 (00:21 UTC)

Pronóstico

El informe se hizo hace 5 horas y 18 minutos, a las 19:03 UTC
Pronóstico válido del 26 a las 00 UTC al 26 a las 24 UTC
Viento 8 kt del noreste
Visibilidad 10 km o más
Nubes dispersas a una altura de 2600 ft
Evolucionando progresivamente
del 26 a las 03 UTC al 26 a las 04 UTC
Viento 10 kt del sur

TAF: ZPPP 251903Z 2600/2624 04004MPS 9999 SCT026 TX25/2608Z TN16/2622Z BECMG 2603/2604 18005MPS

Observaciones y pronósticos meteorológicos de más de 4000 aeropuertos (mensajes METAR y TAF).

Los puntos amarillos y rojos representan las estaciones disponibles.

Ponga el ratón en el punto deseado para ver el nombre de la estación.

Haga clic para ver las observaciones y los pronósticos meteorológicos.

Para cambiar el mapa : haga clic en los botones verdes con una cruz de color negro para hacer un zoom, en el botón verde con un guión para alejar o en las flechas verdes para mapas adyacentes.


METAR-TAF: